TUN607 DTMB-DTTA
Flight info
| Callsign | TUN607 |
|---|---|
| Flight time | 0h 16m |
| Altitude | 14000 |
| Route | VFR |
| Aircraft | F22/L-SDE3FGHIRWY/LB1 |
Departure
| Time | 2026-05-06 09:37 |
|---|---|
| Airport | Monastir Habib Bourguiba International Airport (DTMB) |
Arrival
| Time | 2026-05-06 09:54 |
|---|---|
| Airport | Tunis Carthage International Airport (DTTA) |
| Time | Latitude | Longitude | Altitude | Speed | Heading |
|---|---|---|---|---|---|
| 2026-05-06 09:32 | 35.75911 | 10.74808 | 7 ft | 0 kts | 343° |
| 2026-05-06 09:34 | 35.75912 | 10.74808 | 7 ft | 1 kts | 343° |
| 2026-05-06 09:34 | 35.75865 | 10.74846 | 7 ft | 17 kts | 199° |
| 2026-05-06 09:35 | 35.75776 | 10.74648 | 7 ft | 35 kts | 254° |
| 2026-05-06 09:35 | 35.75705 | 10.74354 | 6 ft | 37 kts | 253° |
| 2026-05-06 09:35 | 35.75640 | 10.74093 | 7 ft | 31 kts | 254° |
| 2026-05-06 09:35 | 35.75583 | 10.73862 | 7 ft | 11 kts | 242° |
| 2026-05-06 09:36 | 35.75499 | 10.73815 | 7 ft | 18 kts | 156° |
| 2026-05-06 09:36 | 35.75492 | 10.73819 | 7 ft | 0 kts | 156° |
| 2026-05-06 09:36 | 35.75451 | 10.73841 | 8 ft | 10 kts | 156° |
| 2026-05-06 09:37 | 35.75446 | 10.73980 | 7 ft | 10 kts | 76° |
| 2026-05-06 09:37 | 35.75447 | 10.73987 | 7 ft | 6 kts | 76° |
| 2026-05-06 09:37 | 35.75574 | 10.74522 | 7 ft | 166 kts | 73° |
| 2026-05-06 09:37 | 35.75968 | 10.76600 | 804 ft | 302 kts | 93° |
| 2026-05-06 09:38 | 35.75778 | 10.79694 | 4277 ft | 424 kts | 97° |
| 2026-05-06 09:38 | 35.75491 | 10.83763 | 6097 ft | 510 kts | 97° |
| 2026-05-06 09:38 | 35.75152 | 10.88321 | 7922 ft | 560 kts | 100° |
| 2026-05-06 09:38 | 35.73141 | 10.92298 | 9187 ft | 601 kts | 173° |
| 2026-05-06 09:39 | 35.70360 | 10.89519 | 9987 ft | 634 kts | 266° |
| 2026-05-06 09:39 | 35.71830 | 10.84584 | 10232 ft | 603 kts | 304° |
| 2026-05-06 09:39 | 35.74285 | 10.80702 | 10821 ft | 542 kts | 307° |
| 2026-05-06 09:39 | 35.77156 | 10.78184 | 11860 ft | 482 kts | 332° |
| 2026-05-06 09:40 | 35.79997 | 10.76441 | 13466 ft | 429 kts | 329° |
| 2026-05-06 09:40 | 35.82512 | 10.74778 | 14291 ft | 399 kts | 328° |
| 2026-05-06 09:40 | 35.87209 | 10.71043 | 12169 ft | 496 kts | 315° |
| 2026-05-06 09:41 | 35.90040 | 10.68162 | 10922 ft | 516 kts | 331° |
| 2026-05-06 09:41 | 35.93035 | 10.66815 | 12827 ft | 382 kts | 352° |
| 2026-05-06 09:41 | 35.94293 | 10.68345 | 13706 ft | 278 kts | 163° |
| 2026-05-06 09:41 | 35.92753 | 10.67980 | 13188 ft | 276 kts | 289° |
| 2026-05-06 09:42 | 35.93773 | 10.66486 | 12098 ft | 297 kts | 330° |
| 2026-05-06 09:42 | 35.95791 | 10.65183 | 11893 ft | 357 kts | 328° |
| 2026-05-06 09:42 | 35.98472 | 10.63604 | 12222 ft | 529 kts | 334° |
| 2026-05-06 09:42 | 36.02536 | 10.61391 | 13041 ft | 731 kts | 335° |
| 2026-05-06 09:43 | 36.07383 | 10.58811 | 12599 ft | 770 kts | 335° |
| 2026-05-06 09:43 | 36.12400 | 10.56233 | 11785 ft | 830 kts | 335° |
| 2026-05-06 09:43 | 36.17440 | 10.52233 | 8295 ft | 852 kts | 299° |
| 2026-05-06 09:43 | 36.15812 | 10.46528 | 997 ft | 868 kts | 184° |
| 2026-05-06 09:44 | 36.10361 | 10.46441 | 6728 ft | 724 kts | 198° |
| 2026-05-06 09:44 | 36.06132 | 10.44927 | 15099 ft | 632 kts | 197° |
| 2026-05-06 09:44 | 36.02376 | 10.43991 | 25572 ft | 270 kts | 185° |
| 2026-05-06 09:44 | 36.01234 | 10.44364 | 39784 ft | 156 kts | 205° |
| 2026-05-06 09:45 | 36.00588 | 10.44062 | 44143 ft | 80 kts | 208° |
| 2026-05-06 09:45 | 35.99976 | 10.43825 | 40918 ft | 113 kts | 226° |
| 2026-05-06 09:45 | 35.99235 | 10.43670 | 30050 ft | 114 kts | 191° |
| 2026-05-06 09:45 | 35.99027 | 10.44799 | 10315 ft | 221 kts | 47° |
| 2026-05-06 09:46 | 36.04243 | 10.46768 | 1404 ft | 824 kts | 7° |
| 2026-05-06 09:46 | 36.08548 | 10.44810 | 635 ft | 593 kts | 298° |
| 2026-05-06 09:46 | 36.07611 | 10.41795 | 841 ft | 277 kts | 94° |
| 2026-05-06 09:46 | 36.07999 | 10.43815 | 386 ft | 305 kts | 43° |
| 2026-05-06 09:47 | 36.09119 | 10.43550 | 51 ft | 168 kts | 219° |
| 2026-05-06 09:47 | 36.09956 | 10.43697 | 725 ft | 298 kts | 30° |
| 2026-05-06 09:47 | 36.12060 | 10.44876 | 1173 ft | 454 kts | 23° |
| 2026-05-06 09:47 | 36.15586 | 10.46165 | 2429 ft | 578 kts | 9° |
| 2026-05-06 09:48 | 36.20042 | 10.46419 | 3675 ft | 719 kts | 357° |
| 2026-05-06 09:48 | 36.25492 | 10.45609 | 3905 ft | 845 kts | 346° |
| 2026-05-06 09:48 | 36.31163 | 10.43156 | 4045 ft | 889 kts | 338° |
| 2026-05-06 09:48 | 36.36871 | 10.40036 | 3859 ft | 905 kts | 336° |
| 2026-05-06 09:49 | 36.42477 | 10.36492 | 4155 ft | 904 kts | 331° |
| 2026-05-06 09:49 | 36.47972 | 10.32616 | 4002 ft | 880 kts | 329° |
| 2026-05-06 09:49 | 36.52588 | 10.28966 | 3296 ft | 681 kts | 327° |
| 2026-05-06 09:49 | 36.56233 | 10.26446 | 2432 ft | 552 kts | 346° |
| 2026-05-06 09:50 | 36.59593 | 10.25393 | 1868 ft | 471 kts | 351° |
| 2026-05-06 09:50 | 36.62668 | 10.24793 | 1202 ft | 418 kts | 354° |
| 2026-05-06 09:50 | 36.65321 | 10.24438 | 1317 ft | 358 kts | 358° |
| 2026-05-06 09:50 | 36.66915 | 10.24293 | 1244 ft | 337 kts | 354° |
| 2026-05-06 09:51 | 36.69535 | 10.23794 | 939 ft | 194 kts | 5° |
| 2026-05-06 09:51 | 36.70515 | 10.23728 | 770 ft | 231 kts | 355° |
| 2026-05-06 09:51 | 36.72274 | 10.23431 | 723 ft | 260 kts | 352° |
| 2026-05-06 09:51 | 36.74150 | 10.22960 | 705 ft | 288 kts | 349° |
| 2026-05-06 09:52 | 36.76809 | 10.22658 | 622 ft | 253 kts | 356° |
| 2026-05-06 09:52 | 36.77875 | 10.22365 | 615 ft | 217 kts | 343° |
| 2026-05-06 09:52 | 36.79194 | 10.21746 | 447 ft | 188 kts | 343° |
| 2026-05-06 09:52 | 36.80369 | 10.21394 | 381 ft | 176 kts | 1° |
| 2026-05-06 09:53 | 36.81588 | 10.21695 | 268 ft | 185 kts | 20° |
| 2026-05-06 09:53 | 36.82799 | 10.22090 | 204 ft | 173 kts | 12° |
| 2026-05-06 09:53 | 36.83849 | 10.22360 | 33 ft | 139 kts | 15° |
| 2026-05-06 09:53 | 36.84638 | 10.22579 | 25 ft | 98 kts | 11° |
| 2026-05-06 09:54 | 36.84941 | 10.22585 | 29 ft | 22 kts | 270° |
| 2026-05-06 09:54 | 36.84977 | 10.22403 | 28 ft | 14 kts | 223° |
| 2026-05-06 09:54 | 36.84874 | 10.22278 | 27 ft | 26 kts | 284° |
| 2026-05-06 09:54 | 36.84943 | 10.22150 | 27 ft | 8 kts | 212° |
| 2026-05-06 09:55 | 36.84932 | 10.22155 | 27 ft | 0 kts | 136° |
| 2026-05-06 09:57 | 36.84929 | 10.22157 | 27 ft | 6 kts | 136° |
| 2026-05-06 09:57 | 36.84867 | 10.22315 | 27 ft | 27 kts | 98° |
| 2026-05-06 09:57 | 36.85011 | 10.22342 | 28 ft | 35 kts | 305° |
| 2026-05-06 09:57 | 36.85112 | 10.22052 | 27 ft | 37 kts | 291° |
| 2026-05-06 09:58 | 36.85215 | 10.21750 | 27 ft | 38 kts | 304° |
| 2026-05-06 09:58 | 36.85401 | 10.21803 | 28 ft | 29 kts | 68° |
| 2026-05-06 09:58 | 36.85391 | 10.21872 | 29 ft | 0 kts | 114° |
| 2026-05-06 10:00 | 36.85390 | 10.21876 | 29 ft | 8 kts | 114° |
| 2026-05-06 10:00 | 36.85030 | 10.22964 | 30 ft | 266 kts | 112° |
| 2026-05-06 10:01 | 36.83146 | 10.24901 | 1468 ft | 421 kts | 150° |
| 2026-05-06 10:01 | 36.80038 | 10.26801 | 2880 ft | 636 kts | 155° |
| 2026-05-06 10:01 | 36.75480 | 10.29199 | 5536 ft | 757 kts | 159° |
| 2026-05-06 10:01 | 36.70677 | 10.31614 | 9559 ft | 705 kts | 157° |
| 2026-05-06 10:02 | 36.66608 | 10.34163 | 11197 ft | 578 kts | 150° |
| 2026-05-06 10:02 | 36.63269 | 10.35873 | 10328 ft | 494 kts | 160° |
| 2026-05-06 10:02 | 36.61337 | 10.34779 | 8768 ft | 362 kts | 310° |
| 2026-05-06 10:02 | 36.63557 | 10.33375 | 8368 ft | 343 kts | 337° |
| 2026-05-06 10:03 | 36.65632 | 10.32507 | 8367 ft | 307 kts | 353° |
| 2026-05-06 10:03 | 36.67484 | 10.31535 | 7915 ft | 281 kts | 328° |
| 2026-05-06 10:03 | 36.69256 | 10.30672 | 7684 ft | 289 kts | 338° |
| 2026-05-06 10:03 | 36.71161 | 10.29669 | 7587 ft | 298 kts | 334° |
| 2026-05-06 10:04 | 36.73189 | 10.28754 | 7445 ft | 321 kts | 338° |
| 2026-05-06 10:04 | 36.75217 | 10.27779 | 7324 ft | 299 kts | 338° |
| 2026-05-06 10:04 | 36.77107 | 10.26888 | 7116 ft | 280 kts | 339° |
| 2026-05-06 10:04 | 36.78946 | 10.26034 | 6974 ft | 305 kts | 336° |
| 2026-05-06 10:05 | 36.81063 | 10.25043 | 6914 ft | 337 kts | 338° |
| 2026-05-06 10:05 | 36.82746 | 10.24003 | 7644 ft | 187 kts | 320° |
| 2026-05-06 10:05 | 36.83968 | 10.23659 | 6455 ft | 255 kts | 4° |
| 2026-05-06 10:05 | 36.86161 | 10.24259 | 6050 ft | 343 kts | 27° |
| 2026-05-06 10:06 | 36.88463 | 10.26190 | 5967 ft | 378 kts | 33° |
| 2026-05-06 10:06 | 36.89446 | 10.27114 | 6376 ft | 144 kts | 41° |
| 2026-05-06 10:06 | 36.90688 | 10.28542 | 5086 ft | 301 kts | 41° |
| 2026-05-06 10:06 | 36.92468 | 10.30370 | 4820 ft | 341 kts | 40° |
| 2026-05-06 10:07 | 36.94289 | 10.32204 | 4358 ft | 328 kts | 40° |
| 2026-05-06 10:07 | 36.95230 | 10.33074 | 4053 ft | 77 kts | 64° |
| 2026-05-06 10:07 | 36.96182 | 10.34226 | 3916 ft | 343 kts | 40° |
| 2026-05-06 10:07 | 36.98631 | 10.36689 | 3834 ft | 461 kts | 29° |
| 2026-05-06 10:08 | 37.01465 | 10.36906 | 2578 ft | 376 kts | 18° |
| 2026-05-06 10:08 | 37.01918 | 10.37954 | 14 ft | 21 kts | 349° |
| 2026-05-06 10:08 | 37.02226 | 10.37658 | 7 ft | 141 kts | 319° |
| 2026-05-06 10:08 | 37.03644 | 10.35966 | 2041 ft | 442 kts | 306° |
| 2026-05-06 10:09 | 37.04708 | 10.31465 | 2633 ft | 528 kts | 276° |
| 2026-05-06 10:09 | 37.04070 | 10.27621 | 3763 ft | 405 kts | 220° |
| 2026-05-06 10:09 | 37.02433 | 10.26343 | 3874 ft | 181 kts | 197° |
| 2026-05-06 10:09 | 37.00845 | 10.25772 | 1970 ft | 253 kts | 190° |
| 2026-05-06 10:10 | 36.99199 | 10.25260 | 1360 ft | 234 kts | 190° |
| 2026-05-06 10:10 | 36.97790 | 10.24774 | 1215 ft | 180 kts | 191° |
| 2026-05-06 10:10 | 36.96683 | 10.24393 | 1003 ft | 164 kts | 186° |
| 2026-05-06 10:10 | 36.95454 | 10.24119 | 907 ft | 193 kts | 185° |
| 2026-05-06 10:11 | 36.94079 | 10.23875 | 809 ft | 205 kts | 186° |
| 2026-05-06 10:11 | 36.92730 | 10.23673 | 727 ft | 194 kts | 182° |
| 2026-05-06 10:11 | 36.91376 | 10.23404 | 660 ft | 202 kts | 190° |
| 2026-05-06 10:11 | 36.89960 | 10.23063 | 765 ft | 208 kts | 178° |
| 2026-05-06 10:12 | 36.88663 | 10.23222 | 658 ft | 163 kts | 169° |
| 2026-05-06 10:12 | 36.87580 | 10.23334 | 279 ft | 155 kts | 184° |
| 2026-05-06 10:12 | 36.86519 | 10.23074 | 40 ft | 142 kts | 187° |
| 2026-05-06 10:12 | 36.85701 | 10.22860 | 27 ft | 101 kts | 195° |
| 2026-05-06 10:13 | 36.85110 | 10.22701 | 32 ft | 70 kts | 191° |
| 2026-05-06 10:13 | 36.84633 | 10.22549 | 27 ft | 83 kts | 205° |
| 2026-05-06 10:13 | 36.84497 | 10.22109 | 27 ft | 46 kts | 256° |
| 2026-05-06 10:13 | 36.84250 | 10.21930 | 27 ft | 44 kts | 193° |
| 2026-05-06 10:14 | 36.84063 | 10.21790 | 27 ft | 24 kts | 295° |
| 2026-05-06 10:14 | 36.84122 | 10.21659 | 27 ft | 20 kts | 285° |
| 2026-05-06 10:14 | 36.84208 | 10.21661 | 27 ft | 19 kts | 11° |